Time;durP1;ratioP1;P1;durP2;ratioP2;P2;SDS_P1;SDS_P2;PMS_P1;PMS_P2;Temp;Humidity;BMP_temperature;BMP_pressure;BME280_temperature;BME280_humidity;BME280_pressure;Samples;Min_cycle;Max_cycle;Signal;HPM_P1;HPM_P2
2022/10/06 00:00:50;;;;;;;855.83;784.53;;;16.10;99.90;;;;;;4995537;28;20412;-59
2022/10/06 00:03:16;;;;;;;856.37;784.87;;;16.10;99.90;;;;;;4996609;28;20492;-57
2022/10/06 00:05:42;;;;;;;862.60;790.87;;;16.10;99.90;;;;;;4997243;28;20507;-59
2022/10/06 00:08:09;;;;;;;854.58;784.13;;;16.10;99.90;;;;;;5014344;28;20396;-59
2022/10/06 00:10:35;;;;;;;870.57;799.17;;;16.00;99.90;;;;;;4998271;28;20389;-59
2022/10/06 00:13:00;;;;;;;878.33;805.40;;;16.00;99.90;;;;;;5015604;28;20454;-58
2022/10/06 00:15:29;;;;;;;840.72;774.50;;;16.00;99.90;;;;;;4997985;28;20479;-59
2022/10/06 00:17:56;;;;;;;826.42;761.42;;;16.00;99.90;;;;;;5014118;28;20507;-59
2022/10/06 00:20:24;;;;;;;771.95;712.53;;;16.00;99.90;;;;;;4996720;28;20724;-59
2022/10/06 00:22:50;;;;;;;784.97;723.33;;;16.00;99.90;;;;;;4996799;28;21040;-59
2022/10/06 00:25:19;;;;;;;788.65;726.78;;;16.00;99.90;;;;;;4996185;28;20797;-59
2022/10/06 00:27:47;;;;;;;771.78;711.55;;;16.00;99.90;;;;;;4996072;28;20669;-59
2022/10/06 00:30:18;;;;;;;753.92;695.35;;;16.00;99.90;;;;;;4997563;28;20393;-59
2022/10/06 00:32:56;;;;;;;768.97;708.70;;;15.90;99.90;;;;;;4996725;28;20401;-58
2022/10/06 00:35:23;;;;;;;742.30;684.95;;;15.90;99.90;;;;;;4974096;28;20420;-59
2022/10/06 00:37:48;;;;;;;735.38;678.90;;;15.90;99.90;;;;;;4973830;28;20448;-59
2022/10/06 00:40:14;;;;;;;755.67;697.20;;;15.90;99.90;;;;;;4974639;28;20539;-59
2022/10/06 00:42:49;;;;;;;773.67;712.23;;;15.90;99.90;;;;;;4974721;28;20514;-59
2022/10/06 00:45:15;;;;;;;752.90;694.13;;;15.90;99.90;;;;;;4974164;28;20399;-58
2022/10/06 00:47:41;;;;;;;753.50;693.08;;;15.90;99.90;;;;;;4973887;28;20423;-58
2022/10/06 00:50:08;;;;;;;754.53;693.83;;;15.90;99.90;;;;;;4974970;28;20381;-58
2022/10/06 00:52:34;;;;;;;735.38;676.88;;;15.90;99.90;;;;;;4975418;28;20402;-58
2022/10/06 00:55:03;;;;;;;752.85;692.65;;;15.90;99.90;;;;;;4974185;28;20427;-57
2022/10/06 00:57:29;;;;;;;755.30;694.85;;;15.80;99.90;;;;;;4973797;28;20498;-58
2022/10/06 00:59:55;;;;;;;723.00;665.70;;;15.80;99.90;;;;;;4976356;28;20583;-58
2022/10/06 01:02:34;;;;;;;795.80;730.30;;;15.70;99.90;;;;;;4975159;28;20572;-58
2022/10/06 01:05:02;;;;;;;755.83;694.75;;;15.80;99.90;;;;;;4975757;28;20423;-58
2022/10/06 01:07:29;;;;;;;752.97;692.53;;;15.80;99.90;;;;;;4973567;28;20446;-59
2022/10/06 01:09:56;;;;;;;795.40;731.00;;;15.80;99.90;;;;;;4974369;28;20784;-57
2022/10/06 01:12:24;;;;;;;795.07;730.07;;;15.70;99.90;;;;;;4972885;28;20419;-57
2022/10/06 01:14:51;;;;;;;811.72;744.17;;;15.60;99.90;;;;;;4972425;28;20798;-58
2022/10/06 01:17:33;;;;;;;811.65;745.55;;;15.60;99.90;;;;;;4972315;28;20431;-58
2022/10/06 01:20:11;;;;;;;800.13;734.15;;;15.60;99.90;;;;;;4973378;28;20475;-59
2022/10/06 01:22:44;;;;;;;808.47;741.63;;;15.60;99.90;;;;;;4974245;28;20404;-57
2022/10/06 01:25:12;;;;;;;804.45;738.55;;;15.50;99.90;;;;;;4974092;28;20430;-57
2022/10/06 01:27:41;;;;;;;756.97;697.95;;;15.50;99.90;;;;;;4973134;28;20487;-59
2022/10/06 01:30:08;;;;;;;783.78;720.70;;;15.50;99.90;;;;;;4973374;28;20388;-58
2022/10/06 01:32:37;;;;;;;791.50;727.22;;;15.50;99.90;;;;;;4974021;28;20400;-57
2022/10/06 01:35:05;;;;;;;767.20;705.65;;;15.40;99.90;;;;;;4990488;28;20454;-58
2022/10/06 01:37:31;;;;;;;819.13;751.05;;;15.40;99.90;;;;;;4992780;28;20762;-59
2022/10/06 01:39:56;;;;;;;763.40;701.20;;;15.40;99.90;;;;;;4993246;28;20576;-57
2022/10/06 01:42:22;;;;;;;753.37;692.40;;;15.40;99.90;;;;;;4993694;28;20406;-59
2022/10/06 01:44:48;;;;;;;806.90;740.40;;;15.30;99.90;;;;;;4993516;28;20386;-57
2022/10/06 01:47:13;;;;;;;824.70;756.20;;;15.30;99.90;;;;;;4994210;28;20768;-59
2022/10/06 01:49:39;;;;;;;822.53;754.72;;;15.20;99.90;;;;;;4993878;28;20793;-56
2022/10/06 01:52:05;;;;;;;812.13;745.60;;;15.10;99.90;;;;;;4993975;28;20402;-59
2022/10/06 01:54:31;;;;;;;805.97;741.28;;;15.10;99.90;;;;;;4994286;28;20390;-59
2022/10/06 01:56:57;;;;;;;817.15;750.55;;;15.10;99.90;;;;;;4993294;28;20409;-58
2022/10/06 01:59:23;;;;;;;818.45;751.17;;;15.10;99.90;;;;;;4993446;28;20394;-57
2022/10/06 02:01:49;;;;;;;803.70;739.22;;;15.00;99.90;;;;;;4992519;28;20430;-59
2022/10/06 02:04:15;;;;;;;806.20;741.20;;;15.00;99.90;;;;;;4994657;28;20386;-56
2022/10/06 02:06:41;;;;;;;800.80;737.05;;;15.00;99.90;;;;;;4995285;28;20537;-58
2022/10/06 02:09:06;;;;;;;796.67;734.00;;;14.90;99.90;;;;;;4994539;28;20394;-59
2022/10/06 02:11:32;;;;;;;770.83;712.17;;;14.90;99.90;;;;;;4993519;28;20399;-58
2022/10/06 02:14:00;;;;;;;761.57;703.40;;;14.80;99.90;;;;;;4995290;28;20395;-58
2022/10/06 02:16:26;;;;;;;748.40;691.58;;;14.80;99.90;;;;;;4993016;28;20387;-57
2022/10/06 02:18:53;;;;;;;750.90;693.97;;;14.80;99.90;;;;;;4992629;28;20553;-59
2022/10/06 02:21:21;;;;;;;760.05;702.03;;;14.80;99.90;;;;;;4993371;28;20410;-59
2022/10/06 02:23:47;;;;;;;750.20;692.83;;;14.80;99.90;;;;;;4992044;28;20490;-57
2022/10/06 02:26:16;;;;;;;758.13;698.83;;;14.80;99.90;;;;;;4990159;28;20723;-59
2022/10/06 02:28:43;;;;;;;763.07;703.70;;;14.80;99.90;;;;;;4990737;28;20555;-58
2022/10/06 02:31:10;;;;;;;781.08;719.67;;;14.80;99.90;;;;;;4990319;28;20405;-56
2022/10/06 02:33:36;;;;;;;771.15;710.90;;;14.80;99.90;;;;;;4994542;28;20418;-58
2022/10/06 02:36:03;;;;;;;763.00;704.25;;;14.80;99.90;;;;;;4995520;28;20496;-58
2022/10/06 02:38:30;;;;;;;747.58;690.63;;;14.80;99.90;;;;;;4997493;28;20397;-56
2022/10/06 02:41:00;;;;;;;752.67;695.60;;;14.70;99.90;;;;;;4994980;28;20744;-58
2022/10/06 02:43:28;;;;;;;758.60;700.43;;;14.70;99.90;;;;;;4994832;28;20382;-59
2022/10/06 02:46:10;;;;;;;747.28;690.90;;;14.70;99.90;;;;;;4995897;28;20390;-58
2022/10/06 02:48:36;;;;;;;761.58;703.58;;;14.60;99.90;;;;;;4995267;28;20402;-58
2022/10/06 02:51:09;;;;;;;717.40;665.15;;;14.70;99.90;;;;;;4995307;28;20456;-58
2022/10/06 02:53:35;;;;;;;727.15;672.45;;;14.70;99.90;;;;;;4995342;28;20494;-59
2022/10/06 02:56:19;;;;;;;710.60;657.67;;;14.70;99.90;;;;;;4995139;28;20426;-58
2022/10/06 02:58:48;;;;;;;724.25;668.80;;;14.60;99.90;;;;;;4997707;28;20488;-58
2022/10/06 03:01:20;;;;;;;725.67;670.97;;;14.60;99.90;;;;;;4997499;28;20413;-56
2022/10/06 03:03:46;;;;;;;723.60;669.38;;;14.60;99.90;;;;;;4996567;28;20404;-58
2022/10/06 03:06:20;;;;;;;723.42;669.40;;;14.60;99.90;;;;;;4996077;28;20481;-58
2022/10/06 03:09:07;;;;;;;726.20;672.00;;;14.60;99.90;;;;;;4997086;28;20848;-59
2022/10/06 03:11:35;;;;;;;731.15;676.15;;;14.50;99.90;;;;;;4996602;28;20390;-58
2022/10/06 03:14:02;;;;;;;749.70;692.08;;;14.50;99.90;;;;;;4994516;28;20770;-59
2022/10/06 03:16:31;;;;;;;740.53;684.08;;;14.60;99.90;;;;;;4995239;28;20396;-59
2022/10/06 03:18:57;;;;;;;737.40;682.42;;;14.50;99.90;;;;;;4997992;28;20394;-58
2022/10/06 03:21:25;;;;;;;741.60;685.92;;;14.50;99.90;;;;;;4995232;28;20513;-59
2022/10/06 03:23:52;;;;;;;770.88;712.45;;;14.50;99.90;;;;;;4994619;28;20386;-59
2022/10/06 03:26:21;;;;;;;748.72;693.05;;;14.50;99.90;;;;;;4993271;28;20433;-59
2022/10/06 03:28:47;;;;;;;732.92;678.47;;;14.50;99.90;;;;;;4992935;28;20801;-59
2022/10/06 03:31:13;;;;;;;741.60;685.60;;;14.40;99.90;;;;;;4993307;28;20394;-60
2022/10/06 03:33:38;;;;;;;758.17;699.53;;;14.50;99.90;;;;;;4999766;28;20456;-59
2022/10/06 03:36:08;;;;;;;768.03;709.27;;;14.50;99.90;;;;;;4997892;28;20429;-57
2022/10/06 03:38:34;;;;;;;711.10;658.88;;;14.50;99.90;;;;;;4997894;28;20539;-59
2022/10/06 03:41:08;;;;;;;730.53;675.13;;;14.40;99.90;;;;;;4998074;28;20453;-59
2022/10/06 03:43:35;;;;;;;676.63;627.72;;;14.40;99.90;;;;;;4998489;28;20403;-59
2022/10/06 03:46:02;;;;;;;683.92;632.47;;;14.30;99.90;;;;;;5000352;28;20854;-59
2022/10/06 03:48:29;;;;;;;661.30;611.90;;;14.30;99.90;;;;;;4998656;28;20534;-59
2022/10/06 03:51:03;;;;;;;702.35;650.05;;;14.20;99.90;;;;;;4998750;28;20612;-59
2022/10/06 03:53:29;;;;;;;681.33;631.47;;;14.20;99.90;;;;;;4995896;28;20388;-59
2022/10/06 03:56:07;;;;;;;727.40;673.08;;;14.20;99.90;;;;;;4996518;28;20389;-58
2022/10/06 03:58:35;;;;;;;711.58;659.15;;;14.20;99.90;;;;;;5014612;28;20393;-59
2022/10/06 04:01:07;;;;;;;731.10;676.92;;;14.20;99.90;;;;;;5011201;28;20674;-59
2022/10/06 04:03:34;;;;;;;683.10;633.33;;;14.20;99.90;;;;;;4995884;28;20400;-59
2022/10/06 04:06:03;;;;;;;679.53;629.47;;;14.20;99.90;;;;;;5013705;28;20377;-59
2022/10/06 04:08:29;;;;;;;670.67;620.53;;;14.20;99.90;;;;;;5013504;28;20423;-59
2022/10/06 04:11:02;;;;;;;662.13;613.00;;;14.10;99.90;;;;;;4995457;28;20416;-59
2022/10/06 04:13:28;;;;;;;710.75;656.72;;;14.00;99.90;;;;;;4994739;28;20536;-58
2022/10/06 04:15:54;;;;;;;694.22;641.33;;;14.00;99.90;;;;;;4994875;28;20477;-59
2022/10/06 04:18:20;;;;;;;659.35;608.88;;;14.00;99.90;;;;;;4992287;28;20507;-59
2022/10/06 04:20:46;;;;;;;652.88;602.85;;;14.00;99.90;;;;;;4991457;28;20669;-59
2022/10/06 04:23:12;;;;;;;645.37;595.30;;;14.00;99.90;;;;;;4993112;28;20490;-58
2022/10/06 04:25:38;;;;;;;658.40;606.60;;;14.00;99.90;;;;;;4993674;28;20380;-61
2022/10/06 04:28:03;;;;;;;628.53;579.40;;;14.00;99.90;;;;;;5010213;28;20508;-59
2022/10/06 04:30:29;;;;;;;656.88;605.67;;;14.00;99.90;;;;;;4994133;28;20491;-59
2022/10/06 04:32:55;;;;;;;629.00;580.53;;;13.90;99.90;;;;;;4995804;28;20519;-59
2022/10/06 04:35:22;;;;;;;671.33;619.67;;;13.90;99.90;;;;;;4995011;28;20499;-58
2022/10/06 04:37:48;;;;;;;639.10;590.17;;;13.80;99.90;;;;;;4995548;28;20589;-59
2022/10/06 04:40:14;;;;;;;657.83;607.10;;;13.90;99.90;;;;;;4994391;28;20684;-59
2022/10/06 04:42:40;;;;;;;616.80;569.58;;;13.80;99.90;;;;;;4993473;28;20878;-59
2022/10/06 04:45:06;;;;;;;636.03;588.17;;;13.80;99.90;;;;;;4993473;28;20428;-58
2022/10/06 04:47:32;;;;;;;682.15;630.22;;;13.80;99.90;;;;;;4990324;28;20401;-56
2022/10/06 04:49:58;;;;;;;650.70;600.47;;;13.80;99.90;;;;;;4990242;28;21048;-58
2022/10/06 04:52:23;;;;;;;640.92;591.67;;;13.70;99.90;;;;;;5006172;28;20482;-57
2022/10/06 04:54:49;;;;;;;694.00;641.50;;;13.60;99.90;;;;;;4987073;28;20470;-58
2022/10/06 04:57:14;;;;;;;605.27;562.57;;;13.70;99.90;;;;;;5003874;28;20407;-61
2022/10/06 05:02:24;;;;;;;65.20;61.08;;;13.60;99.90;;;;;;5005249;28;20742;-58
2022/10/06 05:04:50;;;;;;;69.13;65.13;;;13.60;99.90;;;;;;4985874;28;20392;-59
2022/10/06 05:07:17;;;;;;;69.70;65.70;;;13.60;99.90;;;;;;5004312;28;20511;-59
2022/10/06 05:09:42;;;;;;;71.60;67.23;;;13.60;99.90;;;;;;4986676;28;20465;-56
2022/10/06 05:12:09;;;;;;;62.00;58.27;;;13.60;99.90;;;;;;5004172;28;20688;-59
2022/10/06 05:14:34;;;;;;;57.70;54.10;;;13.60;99.90;;;;;;4986876;28;20399;-58
2022/10/06 05:17:00;;;;;;;71.27;66.77;;;13.60;99.90;;;;;;4985315;28;20401;-59
2022/10/06 05:19:25;;;;;;;62.67;58.97;;;13.60;99.90;;;;;;4985337;28;20479;-57
2022/10/06 05:21:52;;;;;;;61.90;57.80;;;13.60;99.90;;;;;;4984956;28;20424;-59
2022/10/06 05:24:17;;;;;;;64.40;60.67;;;13.60;99.90;;;;;;5001211;28;20557;-59
2022/10/06 05:26:43;;;;;;;67.80;63.30;;;13.50;99.90;;;;;;4984042;28;20401;-59
2022/10/06 05:29:09;;;;;;;60.13;56.05;;;13.50;99.90;;;;;;4984526;28;20487;-59
2022/10/06 05:31:39;;;;;;;70.30;66.00;;;13.50;99.90;;;;;;4985428;28;20404;-59
2022/10/06 05:34:06;;;;;;;68.57;64.60;;;13.50;99.90;;;;;;4984538;28;20491;-59
2022/10/06 05:36:34;;;;;;;59.60;56.03;;;13.50;99.90;;;;;;5001885;28;20392;-55
2022/10/06 05:39:00;;;;;;;64.95;60.85;;;13.50;99.90;;;;;;4983622;28;20581;-58
2022/10/06 05:41:28;;;;;;;60.85;56.95;;;13.50;99.90;;;;;;4982921;28;20412;-58
2022/10/06 05:43:57;;;;;;;60.85;57.05;;;13.50;99.90;;;;;;4983486;28;21071;-55
2022/10/06 05:46:30;;;;;;;56.35;52.72;;;13.40;99.90;;;;;;4982526;28;20784;-59
2022/10/06 05:49:06;;;;;;;60.15;56.45;;;13.40;99.90;;;;;;4980703;28;20711;-60
2022/10/06 05:51:33;;;;;;;56.67;52.95;;;13.40;99.90;;;;;;4977262;28;20752;-59
2022/10/06 05:54:00;;;;;;;58.08;54.38;;;13.40;99.90;;;;;;4977666;28;20393;-59
2022/10/06 05:56:34;;;;;;;58.70;55.17;;;13.30;99.90;;;;;;4978624;28;20435;-59
2022/10/06 05:59:00;;;;;;;55.72;52.10;;;13.40;99.90;;;;;;4979921;28;20510;-57
2022/10/06 06:01:28;;;;;;;57.42;53.85;;;13.40;99.90;;;;;;4980289;28;20408;-57
2022/10/06 06:04:02;;;;;;;58.97;55.40;;;13.30;99.90;;;;;;4980472;28;20385;-58
2022/10/06 06:06:32;;;;;;;63.47;59.55;;;13.40;99.90;;;;;;4999521;28;20385;-57
2022/10/06 06:08:59;;;;;;;76.23;71.13;;;13.40;99.90;;;;;;4980978;28;20459;-58
2022/10/06 06:11:26;;;;;;;61.73;57.90;;;13.30;99.90;;;;;;4982798;28;20389;-59
2022/10/06 06:13:56;;;;;;;66.25;62.15;;;13.30;99.90;;;;;;4983763;28;20443;-57
2022/10/06 06:16:23;;;;;;;56.70;53.13;;;13.30;99.90;;;;;;5000814;28;20415;-59
2022/10/06 06:18:49;;;;;;;63.20;59.00;;;13.30;99.90;;;;;;4998009;28;20796;-59
2022/10/06 06:21:15;;;;;;;63.05;58.97;;;13.30;99.90;;;;;;4997674;28;20822;-59
2022/10/06 06:23:45;;;;;;;62.55;58.63;;;13.30;99.90;;;;;;4979304;28;20646;-58
2022/10/06 06:26:24;;;;;;;60.33;56.47;;;13.30;99.90;;;;;;4998848;28;20584;-56
2022/10/06 06:28:52;;;;;;;63.60;59.47;;;13.30;99.90;;;;;;4981140;28;20404;-57
2022/10/06 06:31:21;;;;;;;68.45;63.97;;;13.40;99.90;;;;;;4978089;28;20995;-59
2022/10/06 06:33:49;;;;;;;66.47;62.35;;;13.40;99.90;;;;;;4973824;28;20699;-58
2022/10/06 06:36:16;;;;;;;60.63;56.78;;;13.40;99.90;;;;;;4974223;28;20701;-59
2022/10/06 06:38:44;;;;;;;57.75;53.60;;;13.40;99.90;;;;;;4973885;28;20448;-59
2022/10/06 06:41:18;;;;;;;59.78;55.95;;;13.40;99.90;;;;;;4974311;28;20398;-60
2022/10/06 06:43:44;;;;;;;65.45;61.45;;;13.40;99.90;;;;;;4973417;28;20683;-59
2022/10/06 06:46:11;;;;;;;51.53;47.70;;;13.50;99.90;;;;;;4970401;28;20401;-58
2022/10/06 06:48:37;;;;;;;64.93;60.75;;;13.40;99.90;;;;;;4970296;28;20402;-59
2022/10/06 06:51:04;;;;;;;63.65;59.60;;;13.40;99.90;;;;;;4972032;28;20405;-59
2022/10/06 06:53:30;;;;;;;68.90;64.43;;;13.40;99.90;;;;;;4974915;28;20386;-59
2022/10/06 06:55:56;;;;;;;67.50;63.20;;;13.40;99.90;;;;;;4974443;28;20434;-54
2022/10/06 06:58:22;;;;;;;61.22;57.20;;;13.50;99.90;;;;;;4974751;28;20632;-58
2022/10/06 07:00:47;;;;;;;73.73;69.03;;;13.50;99.90;;;;;;4973144;28;20993;-58
2022/10/06 07:03:15;;;;;;;66.10;62.27;;;13.50;99.90;;;;;;4972462;28;20527;-58
2022/10/06 07:05:44;;;;;;;67.28;62.88;;;13.60;99.90;;;;;;4972859;28;20603;-58
2022/10/06 07:08:10;;;;;;;64.70;60.33;;;13.60;99.90;;;;;;4972120;28;20394;-58
2022/10/06 07:10:36;;;;;;;61.25;57.35;;;13.60;99.90;;;;;;4971347;28;20457;-59
2022/10/06 07:13:05;;;;;;;64.40;60.30;;;13.60;99.90;;;;;;4969485;28;20662;-58
2022/10/06 07:26:33;;;;;;;63.15;58.97;;;13.70;99.90;;;;;;4973928;28;20384;-59
2022/10/06 07:28:59;;;;;;;57.70;53.65;;;13.70;99.90;;;;;;4974123;28;20810;-58
2022/10/06 07:31:32;;;;;;;69.27;65.07;;;13.60;99.90;;;;;;4975294;28;20520;-57
2022/10/06 07:34:03;;;;;;;57.90;54.25;;;13.70;99.90;;;;;;4971831;28;20528;-58
2022/10/06 07:36:30;;;;;;;63.40;59.47;;;13.70;99.90;;;;;;4973960;28;20757;-59
2022/10/06 07:38:55;;;;;;;62.78;58.85;;;13.70;99.90;;;;;;4975165;28;20450;-58
2022/10/06 07:41:22;;;;;;;60.15;56.33;;;13.70;99.90;;;;;;4975359;28;20555;-59
2022/10/06 07:43:48;;;;;;;59.05;55.22;;;13.80;99.90;;;;;;4978928;28;20432;-58
2022/10/06 07:46:14;;;;;;;58.88;55.22;;;13.70;99.90;;;;;;4976121;28;20707;-59
2022/10/06 07:48:40;;;;;;;54.63;51.10;;;13.80;99.90;;;;;;4978212;28;20798;-59
2022/10/06 07:51:17;;;;;;;64.03;60.33;;;13.80;99.90;;;;;;4979156;28;20418;-59
2022/10/06 07:53:49;;;;;;;61.53;57.67;;;13.80;99.90;;;;;;4976776;28;20464;-57
2022/10/06 07:56:15;;;;;;;67.05;62.60;;;13.80;99.90;;;;;;4977780;28;20477;-58
2022/10/06 07:58:43;;;;;;;62.92;59.17;;;13.80;99.90;;;;;;4976503;28;20837;-59
2022/10/06 08:01:12;;;;;;;59.73;55.93;;;13.90;99.90;;;;;;4970747;28;20749;-58
2022/10/06 08:03:39;;;;;;;55.08;51.53;;;13.90;99.90;;;;;;4971902;28;20413;-56
2022/10/06 08:06:13;;;;;;;60.53;56.67;;;13.90;99.90;;;;;;4977273;28;20693;-59
2022/10/06 08:08:39;;;;;;;61.63;57.72;;;14.00;99.90;;;;;;4976132;28;20881;-59
2022/10/06 08:11:06;;;;;;;58.03;54.03;;;14.00;99.90;;;;;;4975659;28;20496;-59
2022/10/06 08:13:35;;;;;;;62.33;58.13;;;14.00;99.90;;;;;;4977132;28;20565;-59
2022/10/06 08:16:05;;;;;;;67.20;63.07;;;14.00;99.90;;;;;;4978440;28;20613;-58
2022/10/06 08:18:31;;;;;;;66.63;62.15;;;14.10;99.90;;;;;;4978198;28;20410;-59
2022/10/06 08:20:57;;;;;;;59.85;55.58;;;14.10;99.90;;;;;;4976515;28;21003;-58
2022/10/06 08:23:23;;;;;;;60.20;56.17;;;14.10;99.90;;;;;;4974333;28;20480;-58
2022/10/06 08:25:50;;;;;;;63.55;59.53;;;14.10;99.90;;;;;;4971800;28;20671;-59
2022/10/06 08:28:16;;;;;;;59.53;55.80;;;14.10;99.90;;;;;;4971025;28;20394;-59
2022/10/06 08:30:42;;;;;;;68.30;64.10;;;14.20;99.90;;;;;;4969237;28;20456;-60
2022/10/06 08:33:07;;;;;;;60.08;56.13;;;14.20;99.90;;;;;;4971677;28;20414;-57
2022/10/06 08:35:34;;;;;;;54.47;50.90;;;14.20;99.90;;;;;;4976960;28;20812;-59
2022/10/06 08:38:00;;;;;;;64.28;60.38;;;14.20;99.90;;;;;;4995076;28;20462;-60
2022/10/06 08:40:27;;;;;;;67.23;63.37;;;14.20;99.90;;;;;;4994300;28;20673;-59
2022/10/06 08:43:00;;;;;;;64.13;59.88;;;14.20;99.90;;;;;;4980562;28;20408;-59
2022/10/06 08:45:35;;;;;;;63.15;59.25;;;14.20;99.90;;;;;;4980750;28;20399;-59
2022/10/06 08:48:03;;;;;;;66.57;62.35;;;14.20;99.90;;;;;;4982140;28;20466;-58
2022/10/06 08:50:37;;;;;;;69.25;64.93;;;14.30;99.90;;;;;;4980925;28;20773;-59
2022/10/06 08:53:45;;;;;;;67.00;62.58;;;14.40;99.90;;;;;;4982456;28;20397;-56
2022/10/06 08:56:21;;;;;;;67.88;63.47;;;14.40;99.90;;;;;;5000783;28;20510;-58
2022/10/06 08:58:51;;;;;;;64.68;60.38;;;14.50;99.90;;;;;;4982407;28;20470;-59
2022/10/06 09:01:37;;;;;;;66.47;62.47;;;14.50;99.90;;;;;;4980566;28;20517;-58
2022/10/06 09:04:06;;;;;;;72.20;67.45;;;14.50;99.90;;;;;;4977256;28;20428;-58
2022/10/06 09:07:02;;;;;;;68.90;64.73;;;14.60;99.90;;;;;;4980926;28;20471;-59
2022/10/06 09:09:56;;;;;;;67.57;63.28;;;14.60;99.90;;;;;;4983690;28;20377;-60
2022/10/06 09:12:52;;;;;;;68.47;64.15;;;14.70;99.90;;;;;;4982579;28;20630;-60
2022/10/06 09:15:43;;;;;;;69.75;65.50;;;14.70;99.90;;;;;;5000552;28;20720;-59
2022/10/06 09:18:15;;;;;;;66.13;62.03;;;14.80;99.90;;;;;;4979345;28;20404;-60
2022/10/06 09:21:05;;;;;;;65.97;61.80;;;14.90;99.90;;;;;;4978542;28;20479;-60
2022/10/06 09:23:49;;;;;;;65.95;61.70;;;14.80;99.90;;;;;;4976086;28;20887;-60
2022/10/06 09:26:21;;;;;;;66.55;62.13;;;14.90;99.90;;;;;;4996914;28;20395;-59
2022/10/06 09:28:48;;;;;;;61.45;57.70;;;14.90;99.90;;;;;;4987136;28;20385;-60
2022/10/06 09:31:40;;;;;;;66.22;62.10;;;14.90;99.90;;;;;;5004349;28;20789;-58
2022/10/06 09:34:50;;;;;;;67.10;62.70;;;15.00;99.90;;;;;;4984683;28;21063;-60
2022/10/06 09:37:16;;;;;;;63.40;59.15;;;15.00;99.90;;;;;;4983214;28;20390;-59
2022/10/06 09:39:44;;;;;;;68.88;64.82;;;15.10;99.90;;;;;;4984249;28;20449;-58
2022/10/06 09:42:23;;;;;;;64.77;60.80;;;15.10;99.90;;;;;;4983327;28;20841;-59
2022/10/06 09:45:00;;;;;;;62.80;58.90;;;15.10;99.90;;;;;;4985380;28;20382;-58
2022/10/06 09:47:31;;;;;;;68.25;64.13;;;15.10;99.90;;;;;;4983860;28;20394;-59
2022/10/06 09:50:16;;;;;;;60.28;56.53;;;15.20;99.90;;;;;;4980955;28;20398;-60
2022/10/06 09:53:03;;;;;;;67.32;63.33;;;15.20;99.90;;;;;;4984723;28;20386;-56
2022/10/06 09:55:38;;;;;;;63.83;59.92;;;15.20;99.90;;;;;;4985029;28;20421;-57
2022/10/06 09:58:17;;;;;;;67.00;62.75;;;15.30;99.90;;;;;;4982334;28;20426;-54
2022/10/06 10:01:01;;;;;;;57.88;54.40;;;15.30;99.90;;;;;;4982014;28;20382;-51
2022/10/06 10:03:45;;;;;;;63.35;59.55;;;15.40;99.90;;;;;;4982614;28;20410;-54
2022/10/06 10:06:26;;;;;;;63.60;59.95;;;15.50;99.90;;;;;;4985129;28;20617;-56
2022/10/06 10:09:18;;;;;;;58.20;54.50;;;15.50;99.90;;;;;;4984192;28;20390;-57
2022/10/06 10:14:44;;;;;;;53.58;50.15;;;15.70;99.90;;;;;;4986168;28;20867;-57
2022/10/06 10:17:23;;;;;;;53.30;50.25;;;15.90;99.90;;;;;;4984183;28;20406;-60
2022/10/06 10:19:53;;;;;;;57.13;53.33;;;15.90;99.90;;;;;;4979372;28;20394;-60
2022/10/06 10:22:34;;;;;;;50.15;46.95;;;16.20;99.90;;;;;;4980671;28;20534;-60
2022/10/06 10:25:28;;;;;;;53.33;49.67;;;16.40;99.90;;;;;;4982576;28;20386;-60
2022/10/06 10:28:03;;;;;;;49.65;46.35;;;16.30;99.90;;;;;;4984918;28;20710;-60
2022/10/06 10:30:32;;;;;;;52.42;49.13;;;16.40;99.90;;;;;;4984303;28;20390;-60
2022/10/06 10:33:30;;;;;;;47.00;43.78;;;16.50;99.90;;;;;;4982226;28;20398;-60
2022/10/06 10:35:58;;;;;;;48.72;45.58;;;16.50;99.90;;;;;;4979762;28;20493;-61
2022/10/06 10:38:25;;;;;;;46.75;43.58;;;16.40;99.90;;;;;;4980411;28;20390;-60
2022/10/06 10:41:08;;;;;;;51.30;48.15;;;16.70;99.90;;;;;;4983059;28;20566;-60
2022/10/06 10:43:41;;;;;;;52.63;49.13;;;17.00;99.90;;;;;;4983799;28;20386;-58
2022/10/06 10:46:35;;;;;;;43.85;40.97;;;17.30;99.90;;;;;;4960689;28;20390;-61
2022/10/06 10:49:11;;;;;;;45.40;42.25;;;17.40;99.90;;;;;;4974705;28;20528;-58
2022/10/06 10:51:46;;;;;;;50.65;47.33;;;17.10;99.90;;;;;;4975004;28;20418;-59
2022/10/06 10:54:36;;;;;;;46.72;43.60;;;16.90;99.90;;;;;;4976601;28;20469;-58
2022/10/06 10:57:03;;;;;;;42.45;39.75;;;16.70;99.90;;;;;;4977688;28;20776;-59
2022/10/06 10:59:34;;;;;;;46.60;43.58;;;16.60;99.90;;;;;;4976423;28;20382;-59
2022/10/06 11:02:17;;;;;;;46.65;43.65;;;16.40;99.90;;;;;;4974343;28;20406;-59
2022/10/06 11:04:46;;;;;;;42.60;39.63;;;16.50;99.90;;;;;;4974074;28;20415;-59
2022/10/06 11:07:30;;;;;;;42.90;40.00;;;16.70;99.90;;;;;;4975802;28;20382;-60
2022/10/06 11:10:03;;;;;;;43.08;40.20;;;17.00;99.90;;;;;;4976814;28;20456;-59
2022/10/06 11:13:00;;;;;;;46.50;43.13;;;17.20;99.90;;;;;;4975929;28;20714;-58
2022/10/06 11:15:53;;;;;;;38.90;36.20;;;17.20;99.90;;;;;;4979357;28;20409;-59
2022/10/06 11:19:01;;;;;;;49.13;45.92;;;17.50;99.90;;;;;;4980034;28;20501;-58
2022/10/06 11:21:50;;;;;;;43.70;40.78;;;17.30;99.90;;;;;;4983896;28;20410;-59
2022/10/06 11:24:44;;;;;;;41.42;38.53;;;17.20;99.90;;;;;;4983312;28;20472;-58
2022/10/06 11:27:28;;;;;;;45.78;42.60;;;17.20;99.90;;;;;;4982714;28;20802;-59
2022/10/06 11:30:05;;;;;;;44.13;41.25;;;17.20;99.90;;;;;;4985855;28;20390;-59
2022/10/06 11:33:09;;;;;;;49.90;46.73;;;17.10;99.90;;;;;;4985736;28;20880;-56
2022/10/06 11:35:38;;;;;;;47.92;44.70;;;16.90;99.90;;;;;;4985423;28;20437;-59
2022/10/06 11:38:34;;;;;;;42.22;39.50;;;16.70;99.90;;;;;;4983696;28;20433;-58
2022/10/06 11:41:08;;;;;;;47.70;44.65;;;16.70;99.90;;;;;;4986160;28;20911;-58
2022/10/06 11:43:45;;;;;;;38.17;35.58;;;16.80;99.90;;;;;;4986391;28;20386;-58
2022/10/06 11:46:50;;;;;;;41.70;38.78;;;17.00;99.90;;;;;;4983321;28;20913;-59
2022/10/06 11:49:28;;;;;;;42.97;40.13;;;17.10;99.90;;;;;;4982686;28;20398;-60
2022/10/06 11:52:16;;;;;;;41.07;38.27;;;17.20;99.90;;;;;;4985105;28;21086;-58
2022/10/06 11:54:50;;;;;;;46.72;43.85;;;17.40;99.90;;;;;;4982072;28;20386;-60
2022/10/06 11:57:22;;;;;;;43.70;40.97;;;17.70;99.90;;;;;;4982052;28;20402;-59
2022/10/06 11:59:50;;;;;;;53.33;50.08;;;18.00;99.90;;;;;;4981236;28;20405;-59
2022/10/06 12:02:39;;;;;;;58.95;55.38;;;18.20;99.90;;;;;;4978591;28;21008;-60
2022/10/06 12:05:11;;;;;;;69.43;65.15;;;18.30;99.90;;;;;;4979910;28;20429;-60
2022/10/06 12:07:55;;;;;;;70.15;65.82;;;18.30;99.90;;;;;;4980294;28;20392;-60
2022/10/06 12:10:27;;;;;;;78.88;74.20;;;18.20;99.90;;;;;;4981571;28;20394;-59
2022/10/06 12:13:10;;;;;;;67.50;63.55;;;18.20;99.90;;;;;;4983484;28;20794;-60
2022/10/06 12:16:01;;;;;;;77.78;73.47;;;18.30;99.90;;;;;;4970004;28;20390;-60
2022/10/06 12:18:48;;;;;;;54.50;51.33;;;18.50;99.90;;;;;;4986553;28;20409;-60
2022/10/06 12:21:48;;;;;;;100.35;94.30;;;18.70;99.90;;;;;;4985766;28;20410;-60
2022/10/06 12:24:36;;;;;;;95.57;90.13;;;18.80;99.90;;;;;;4976811;28;20473;-60
2022/10/06 12:27:05;;;;;;;55.97;52.73;;;18.60;99.90;;;;;;4987675;28;20433;-59
2022/10/06 12:29:41;;;;;;;69.13;65.13;;;18.90;99.90;;;;;;4984790;28;20461;-59
2022/10/06 12:32:43;;;;;;;104.10;98.03;;;19.20;99.90;;;;;;4983209;28;20871;-60
2022/10/06 12:35:29;;;;;;;113.95;107.10;;;19.30;99.90;;;;;;4981300;28;20479;-58
2022/10/06 12:37:57;;;;;;;116.85;109.88;;;19.30;99.90;;;;;;4982015;28;20387;-61
2022/10/06 12:40:41;;;;;;;95.63;90.05;;;19.60;99.90;;;;;;4982997;28;20390;-60
2022/10/06 12:43:17;;;;;;;112.75;106.18;;;19.60;99.90;;;;;;4981129;28;21147;-60
2022/10/06 12:45:47;;;;;;;105.63;99.57;;;19.50;99.90;;;;;;4981561;28;20401;-60
2022/10/06 12:48:38;;;;;;;108.72;102.18;;;19.30;99.90;;;;;;4981191;28;20496;-60
2022/10/06 12:51:21;;;;;;;95.88;90.07;;;19.10;99.90;;;;;;4983431;28;20484;-58
2022/10/06 12:54:14;;;;;;;89.03;83.72;;;18.60;99.90;;;;;;4982301;28;20390;-59
2022/10/06 12:56:42;;;;;;;68.80;64.70;;;18.20;99.90;;;;;;4983191;28;20440;-59
2022/10/06 12:59:22;;;;;;;63.50;59.78;;;17.90;99.90;;;;;;4982494;28;20391;-59